createdAt,value
2017-02-04T00:00:26.696Z,79.54
2017-02-04T00:00:54.889Z,79.54
2017-02-04T00:01:23.011Z,79.64
2017-02-04T00:01:51.327Z,79.64
2017-02-04T00:02:19.413Z,79.64
2017-02-04T00:02:47.574Z,80.22
2017-02-04T00:03:15.716Z,80.32
2017-02-04T00:03:43.849Z,79.64
2017-02-04T00:04:11.987Z,79.45
2017-02-04T00:04:40.133Z,79.64
2017-02-04T00:05:08.329Z,79.45
2017-02-04T00:05:36.486Z,79.45
2017-02-04T00:06:04.681Z,79.45
2017-02-04T00:06:32.753Z,79.35
2017-02-04T00:07:00.926Z,79.45
2017-02-04T00:07:29.109Z,79.83
2017-02-04T00:07:57.190Z,79.93
2017-02-04T00:08:25.165Z,79.83
2017-02-04T00:08:53.218Z,79.45
2017-02-04T00:09:21.368Z,80.03
2017-02-04T00:09:49.546Z,79.64
2017-02-04T00:10:17.762Z,79.54
2017-02-04T00:10:45.839Z,79.93
2017-02-04T00:11:14.012Z,80.22
2017-02-04T00:11:42.065Z,79.83
2017-02-04T00:12:10.244Z,80.71
2017-02-04T00:12:38.393Z,80.51
2017-02-04T00:13:06.557Z,80.41
2017-02-04T00:13:34.727Z,79.83
2017-02-04T00:14:02.903Z,80.12
2017-02-04T00:14:31.067Z,80.12
2017-02-04T00:14:59.254Z,80.71
2017-02-04T00:15:27.393Z,80.71
2017-02-04T00:15:55.468Z,80.71
2017-02-04T00:16:23.658Z,80.8
2017-02-04T00:16:51.833Z,80.51
2017-02-04T00:17:19.985Z,80.41
2017-02-04T00:17:48.209Z,80.9
2017-02-04T00:18:16.354Z,81.09
2017-02-04T00:18:44.553Z,80.61
2017-02-04T00:19:12.771Z,81.09
2017-02-04T00:19:40.946Z,80.71
2017-02-04T00:20:09.092Z,80.41
2017-02-04T00:20:37.192Z,80.61
2017-02-04T00:21:05.356Z,80.41
2017-02-04T00:21:33.507Z,80.8
2017-02-04T00:22:01.666Z,80.8
2017-02-04T00:22:29.711Z,80.9
2017-02-04T00:22:57.884Z,80.71
2017-02-04T00:23:26.034Z,80.71
2017-02-04T00:23:54.163Z,80.71
2017-02-04T00:24:22.338Z,80.9
2017-02-04T00:24:50.488Z,80.9
2017-02-04T00:25:18.647Z,81.09
2017-02-04T00:25:46.819Z,80.99
2017-02-04T00:26:14.983Z,80.99
2017-02-04T00:26:43.151Z,80.71
2017-02-04T00:27:11.330Z,80.8
2017-02-04T00:27:39.478Z,80.61
2017-02-04T00:28:07.626Z,80.9
2017-02-04T00:28:35.794Z,80.8
2017-02-04T00:29:03.939Z,80.41
2017-02-04T00:29:32.080Z,80.9
2017-02-04T00:30:00.218Z,80.9
2017-02-04T00:30:28.371Z,81.09
2017-02-04T00:30:56.549Z,80.99
2017-02-04T00:31:24.686Z,80.61
2017-02-04T00:31:52.819Z,80.65
2017-02-04T00:32:20.974Z,80.51
2017-02-04T00:32:49.148Z,80.61
2017-02-04T00:33:17.310Z,80.36
2017-02-04T00:33:45.466Z,80.36
2017-02-04T00:34:13.652Z,80.36
2017-02-04T00:34:41.846Z,80.55
2017-02-04T00:35:09.908Z,80.26
2017-02-04T00:35:38.105Z,80.36
2017-02-04T00:36:06.201Z,80.26
2017-02-04T00:36:34.389Z,80.26
2017-02-04T00:37:02.541Z,80.65
2017-02-04T00:37:30.710Z,80.16
2017-02-04T00:37:58.865Z,80.26
2017-02-04T00:38:26.938Z,80.26
2017-02-04T00:38:55.123Z,80.65
2017-02-04T00:39:23.296Z,80.46
2017-02-04T00:39:51.469Z,80.26
2017-02-04T00:40:19.515Z,80.46
2017-02-04T00:40:47.674Z,80.65
2017-02-04T00:41:15.741Z,80.74
2017-02-04T00:41:43.927Z,81.13
2017-02-04T00:42:12.108Z,80.94
2017-02-04T00:42:40.276Z,80.55
2017-02-04T00:43:08.442Z,80.65
2017-02-04T00:43:36.588Z,80.46
2017-02-04T00:44:04.743Z,80.55
2017-02-04T00:44:32.916Z,80.46
2017-02-04T00:45:00.971Z,80.46
2017-02-04T00:45:29.155Z,80.65
2017-02-04T00:45:57.242Z,80.65
2017-02-04T00:46:25.306Z,80.74
2017-02-04T00:46:53.460Z,80.36
2017-02-04T00:47:21.642Z,80.46
2017-02-04T00:47:49.810Z,80.55
2017-02-04T00:48:17.897Z,80.65
2017-02-04T00:48:46.057Z,80.65
2017-02-04T00:49:14.231Z,80.74
2017-02-04T00:49:42.394Z,80.94
2017-02-04T00:50:10.578Z,81.13
2017-02-04T00:50:38.682Z,81.23
2017-02-04T00:51:06.857Z,80.94
2017-02-04T00:51:35.014Z,80.74
2017-02-04T00:52:03.117Z,80.74
2017-02-04T00:52:31.282Z,80.74
2017-02-04T00:52:59.468Z,81.04
2017-02-04T00:53:27.625Z,81.04
2017-02-04T00:53:55.805Z,80.94
2017-02-04T00:54:23.972Z,80.74
2017-02-04T00:54:52.139Z,81.04
2017-02-04T00:55:20.203Z,81.32
2017-02-04T00:55:48.361Z,81.71
2017-02-04T00:56:16.575Z,81.81
2017-02-04T00:56:44.751Z,81.52
2017-02-04T00:57:12.805Z,81.9
2017-02-04T00:57:40.963Z,81.52
2017-02-04T00:58:09.163Z,81.9
2017-02-04T00:58:37.329Z,82.39
2017-02-04T00:59:05.493Z,82
2017-02-04T00:59:33.659Z,82.29
2017-02-04T01:00:01.706Z,82.2
2017-02-04T01:00:29.839Z,82.29
2017-02-04T01:00:57.993Z,81.71
2017-02-04T01:01:26.075Z,82.29
2017-02-04T01:01:54.214Z,82.29
2017-02-04T01:02:22.366Z,82.25
2017-02-04T01:02:50.531Z,82.15
2017-02-04T01:03:18.674Z,82.1
2017-02-04T01:03:46.861Z,82.64
2017-02-04T01:04:15.041Z,82.64
2017-02-04T01:04:43.195Z,83.22
2017-02-04T01:05:11.371Z,83.12
2017-02-04T01:05:39.417Z,82.93
2017-02-04T01:06:07.539Z,83.31
2017-02-04T01:06:35.610Z,83.22
2017-02-04T01:07:03.782Z,83.03
2017-02-04T01:07:31.882Z,83.22
2017-02-04T01:08:00.045Z,83.31
2017-02-04T01:08:28.222Z,83.31
2017-02-04T01:08:56.392Z,83.61
2017-02-04T01:09:24.556Z,83.41
2017-02-04T01:09:52.734Z,83.03
2017-02-04T01:10:20.875Z,83.06
2017-02-04T01:10:48.959Z,83.03
2017-02-04T01:11:17.127Z,83.03
2017-02-04T01:11:45.290Z,82.83
2017-02-04T01:12:13.441Z,83.06
2017-02-04T01:12:41.482Z,82.73
2017-02-04T01:13:09.647Z,83.41
2017-02-04T01:13:37.825Z,83.41
2017-02-04T01:14:05.906Z,83.61
2017-02-04T01:14:34.088Z,83.61
2017-02-04T01:15:02.155Z,83.03
2017-02-04T01:15:30.215Z,82.93
2017-02-04T01:15:58.293Z,83.03
2017-02-04T01:16:26.512Z,83.03
2017-02-04T01:16:54.678Z,82.93
2017-02-04T01:17:22.848Z,82.83
2017-02-04T01:17:50.909Z,83.41
2017-02-04T01:18:19.056Z,83.41
2017-02-04T01:18:47.222Z,83.31
2017-02-04T01:19:15.294Z,83.31
2017-02-04T01:19:43.480Z,83.51
2017-02-04T01:20:11.646Z,83.7
2017-02-04T01:20:39.812Z,83.51
2017-02-04T01:21:07.963Z,83.8
2017-02-04T01:21:36.021Z,82.83
2017-02-04T01:22:04.183Z,82.73
2017-02-04T01:22:32.373Z,83.22
2017-02-04T01:23:00.451Z,83.89
2017-02-04T01:23:28.620Z,84.19
2017-02-04T01:23:56.717Z,83.55
2017-02-04T01:24:24.888Z,83.31
2017-02-04T01:24:53.053Z,83.41
2017-02-04T01:25:21.201Z,84.38
2017-02-04T01:25:49.364Z,84.09
2017-02-04T01:26:17.548Z,84.38
2017-02-04T01:26:45.644Z,84.28
2017-02-04T01:27:13.792Z,84.57
2017-02-04T01:27:41.933Z,84.28
2017-02-04T01:28:10.113Z,84.09
2017-02-04T01:28:38.210Z,84.47
2017-02-04T01:29:06.280Z,84.38
2017-02-04T01:29:34.439Z,84.77
2017-02-04T01:30:02.594Z,84.09
2017-02-04T01:30:30.759Z,84.28
2017-02-04T01:30:58.901Z,84.47
2017-02-04T01:31:26.973Z,84.19
2017-02-04T01:31:55.039Z,83.8
2017-02-04T01:32:23.387Z,83.89
2017-02-04T01:32:51.970Z,83.8
2017-02-04T01:33:20.151Z,83.89
2017-02-04T01:33:48.195Z,84.13
2017-02-04T01:34:16.277Z,84.38
2017-02-04T01:34:44.350Z,83.99
2017-02-04T01:35:12.537Z,84.09
2017-02-04T01:35:40.622Z,84.86
2017-02-04T01:36:08.822Z,84.19
2017-02-04T01:36:36.888Z,84.13
2017-02-04T01:37:05.058Z,84.77
2017-02-04T01:37:33.159Z,84.52
2017-02-04T01:38:01.254Z,84.57
2017-02-04T01:38:29.462Z,84.52
2017-02-04T01:38:57.644Z,84.61
2017-02-04T01:39:25.796Z,84.42
2017-02-04T01:39:53.804Z,84.38
2017-02-04T01:40:21.895Z,84.47
2017-02-04T01:40:49.987Z,84.71
2017-02-04T01:41:18.156Z,84.28
2017-02-04T01:41:46.255Z,84.03
2017-02-04T01:42:14.420Z,84.42
2017-02-04T01:42:42.606Z,84.22
2017-02-04T01:43:10.742Z,84.13
2017-02-04T01:43:38.939Z,84.42
2017-02-04T01:44:06.995Z,84.22
2017-02-04T01:44:35.109Z,84.8
2017-02-04T01:45:03.276Z,84.32
2017-02-04T01:45:31.464Z,84.42
2017-02-04T01:45:59.658Z,84.71
2017-02-04T01:46:27.805Z,84.86
2017-02-04T01:46:55.970Z,84.47
2017-02-04T01:47:24.124Z,84.42
2017-02-04T01:47:52.358Z,84.19
2017-02-04T01:48:20.446Z,84.47
2017-02-04T01:48:48.710Z,84.32
2017-02-04T01:49:16.884Z,84.71
2017-02-04T01:49:45.088Z,84.8
2017-02-04T01:50:13.258Z,84.77
2017-02-04T01:50:41.331Z,84.8
2017-02-04T01:51:09.480Z,85.15
2017-02-04T01:51:37.639Z,84.57
2017-02-04T01:52:05.733Z,84.47
2017-02-04T01:52:33.817Z,84.77
2017-02-04T01:53:01.962Z,84.95
2017-02-04T01:53:30.033Z,85.25
2017-02-04T01:53:58.083Z,85.35
2017-02-04T01:54:26.238Z,85.15
2017-02-04T01:54:54.345Z,85.53
2017-02-04T01:55:22.425Z,85.44
2017-02-04T01:55:50.577Z,85.25
2017-02-04T01:56:18.733Z,85.05
2017-02-04T01:56:46.916Z,85.44
2017-02-04T01:57:15.085Z,85.25
2017-02-04T01:57:43.175Z,85.44
2017-02-04T01:58:11.348Z,85.93
2017-02-04T01:58:39.526Z,86.02
2017-02-04T01:59:07.655Z,85.35
2017-02-04T01:59:35.825Z,85.25
2017-02-04T02:00:04.097Z,85.93
2017-02-04T02:00:32.705Z,85.35
2017-02-04T02:01:01.293Z,85.25
2017-02-04T02:01:29.896Z,85.83
2017-02-04T02:01:58.513Z,85.63
2017-02-04T02:02:27.129Z,85.73
2017-02-04T02:02:55.745Z,86.02
2017-02-04T02:03:24.344Z,85.93
2017-02-04T02:03:52.971Z,85.35
2017-02-04T02:04:21.605Z,85.25
2017-02-04T02:04:50.217Z,84.86
2017-02-04T02:05:18.855Z,84.95
2017-02-04T02:05:47.443Z,84.67
2017-02-04T02:06:16.104Z,85.25
2017-02-04T02:06:44.755Z,85.35
2017-02-04T02:07:13.318Z,85.35
2017-02-04T02:07:41.946Z,85.44
2017-02-04T02:08:10.403Z,85.15
2017-02-04T02:08:38.997Z,85.35
2017-02-04T02:09:07.620Z,85.25
2017-02-04T02:09:36.232Z,85.93
2017-02-04T02:10:04.841Z,86.02
2017-02-04T02:10:33.476Z,86.21
2017-02-04T02:11:02.077Z,86.21
2017-02-04T02:11:30.703Z,85.73
2017-02-04T02:11:59.307Z,85.93
2017-02-04T02:12:27.931Z,85.44
2017-02-04T02:12:56.530Z,85.44
2017-02-04T02:13:25.079Z,85.15
2017-02-04T02:13:53.697Z,85.05
2017-02-04T02:14:22.313Z,85.53
2017-02-04T02:14:50.846Z,85.53
2017-02-04T02:15:19.460Z,85.05
2017-02-04T02:15:48.104Z,85.15
2017-02-04T02:16:16.730Z,85.05
2017-02-04T02:16:45.233Z,85.25
2017-02-04T02:17:13.857Z,85.44
2017-02-04T02:17:42.406Z,85.25
2017-02-04T02:18:11.013Z,85.73
2017-02-04T02:18:39.621Z,86.02
2017-02-04T02:19:08.530Z,85.53
2017-02-04T02:19:37.134Z,85.63
2017-02-04T02:20:05.752Z,85.73
2017-02-04T02:20:34.375Z,85.44
2017-02-04T02:21:03.010Z,85.63
2017-02-04T02:21:31.532Z,85.35
2017-02-04T02:22:00.163Z,85.83
2017-02-04T02:22:28.738Z,85.93
2017-02-04T02:22:57.383Z,85.93
2017-02-04T02:23:26.011Z,85.44
2017-02-04T02:23:54.634Z,85.93
2017-02-04T02:24:23.152Z,85.73
2017-02-04T02:24:51.687Z,85.15
2017-02-04T02:25:20.322Z,85.93
2017-02-04T02:25:48.954Z,85.93
2017-02-04T02:26:17.489Z,85.93
2017-02-04T02:26:46.130Z,86.02
2017-02-04T02:27:14.722Z,85.63
2017-02-04T02:27:43.352Z,85.25
2017-02-04T02:28:11.891Z,85.44
2017-02-04T02:28:40.419Z,85.83
2017-02-04T02:29:09.061Z,85.35
2017-02-04T02:29:37.665Z,85.35
2017-02-04T02:30:06.284Z,85.35
2017-02-04T02:30:34.906Z,85.35
2017-02-04T02:31:03.556Z,85.35
2017-02-04T02:31:32.183Z,85.35
2017-02-04T02:32:00.706Z,86.02
2017-02-04T02:32:29.320Z,85.63
2017-02-04T02:32:57.989Z,85.73
2017-02-04T02:33:26.599Z,86.17
2017-02-04T02:33:55.196Z,86.21
2017-02-04T02:34:23.868Z,86.41
2017-02-04T02:34:52.477Z,86.41
2017-02-04T02:35:21.068Z,86.17
2017-02-04T02:35:49.713Z,86.36
2017-02-04T02:36:18.322Z,86.21
2017-02-04T02:36:46.943Z,86.27
2017-02-04T02:37:15.574Z,86.46
2017-02-04T02:37:44.084Z,86.75
2017-02-04T02:38:12.687Z,86.46
2017-02-04T02:38:41.303Z,86.41
2017-02-04T02:39:09.900Z,85.88
2017-02-04T02:39:38.414Z,85.63
2017-02-04T02:40:07.010Z,85.98
2017-02-04T02:40:35.546Z,85.93
2017-02-04T02:41:04.316Z,85.93
2017-02-04T02:41:32.903Z,85.93
2017-02-04T02:42:01.578Z,86.21
2017-02-04T02:42:30.205Z,85.73
2017-02-04T02:42:58.807Z,85.44
2017-02-04T02:43:27.410Z,85.35
2017-02-04T02:43:56.038Z,85.15
2017-02-04T02:44:24.676Z,85.44
2017-02-04T02:44:53.289Z,85.73
2017-02-04T02:45:21.923Z,85.83
2017-02-04T02:45:50.446Z,86.41
2017-02-04T02:46:19.079Z,86.31
2017-02-04T02:46:47.717Z,86.41
2017-02-04T02:47:16.318Z,85.93
2017-02-04T02:47:44.940Z,86.02
2017-02-04T02:48:13.573Z,86.6
2017-02-04T02:48:42.208Z,86.41
2017-02-04T02:49:10.816Z,86.69
2017-02-04T02:49:39.415Z,86.6
2017-02-04T02:50:08.083Z,86.51
2017-02-04T02:50:36.738Z,86.31
2017-02-04T02:51:05.342Z,86.31
2017-02-04T02:51:33.956Z,86.21
2017-02-04T02:52:02.487Z,85.83
2017-02-04T02:52:31.084Z,85.77
2017-02-04T02:52:59.735Z,86.16
2017-02-04T02:53:28.348Z,85.97
2017-02-04T02:53:56.959Z,86.06
2017-02-04T02:54:25.485Z,85.87
2017-02-04T02:54:54.024Z,85.83
2017-02-04T02:55:22.712Z,85.48
2017-02-04T02:55:51.325Z,86.55
2017-02-04T02:56:19.965Z,86.35
2017-02-04T02:56:48.625Z,86.74
2017-02-04T02:57:17.235Z,86.06
2017-02-04T02:57:45.840Z,86.35
2017-02-04T02:58:14.461Z,85.97
2017-02-04T02:58:43.113Z,85.97
2017-02-04T02:59:11.709Z,85.29
2017-02-04T02:59:40.347Z,85.83
2017-02-04T03:00:08.960Z,86.06
2017-02-04T03:00:37.594Z,86.06
2017-02-04T03:01:06.194Z,86.31
2017-02-04T03:01:34.802Z,86.6
2017-02-04T03:02:03.406Z,86.41
2017-02-04T03:02:31.938Z,87.08
2017-02-04T03:03:00.536Z,87.37
2017-02-04T03:03:29.156Z,87.27
2017-02-04T03:03:57.766Z,88.05
2017-02-04T03:04:26.383Z,87.27
2017-02-04T03:04:55.008Z,87.27
2017-02-04T03:05:23.568Z,87.27
2017-02-04T03:05:52.197Z,87.66
2017-02-04T03:06:20.705Z,87.57
2017-02-04T03:06:49.301Z,87.66
2017-02-04T03:07:17.927Z,87.95
2017-02-04T03:07:46.534Z,87.85
2017-02-04T03:08:15.147Z,87.76
2017-02-04T03:08:43.801Z,87.95
2017-02-04T03:09:12.322Z,87.81
2017-02-04T03:09:40.841Z,88.15
2017-02-04T03:10:09.348Z,88.43
2017-02-04T03:10:37.952Z,88.34
2017-02-04T03:11:06.448Z,88.15
2017-02-04T03:11:35.069Z,88.73
2017-02-04T03:12:03.686Z,88.2
2017-02-04T03:12:32.294Z,88.2
2017-02-04T03:13:00.911Z,88.63
2017-02-04T03:13:29.528Z,88.97
2017-02-04T03:13:58.142Z,89.11
2017-02-04T03:14:26.732Z,89.07
2017-02-04T03:14:55.348Z,89.07
2017-02-04T03:15:23.948Z,88.92
2017-02-04T03:15:52.487Z,89.21
2017-02-04T03:16:21.096Z,89.11
2017-02-04T03:16:49.750Z,89.59
2017-02-04T03:17:18.369Z,89.17
2017-02-04T03:17:46.990Z,89.21
2017-02-04T03:18:15.604Z,89.01
2017-02-04T03:18:44.149Z,89.26
2017-02-04T03:19:12.748Z,89.07
2017-02-04T03:19:41.361Z,89.59
2017-02-04T03:20:09.956Z,90.81
2017-02-04T03:20:38.572Z,90.33
2017-02-04T03:21:07.197Z,90.47
2017-02-04T03:21:35.792Z,89.17
2017-02-04T03:22:04.435Z,88.59
2017-02-04T03:22:33.057Z,88.39
2017-02-04T03:23:01.666Z,89.17
2017-02-04T03:23:30.276Z,88.97
2017-02-04T03:23:58.889Z,89.84
2017-02-04T03:24:27.512Z,89.94
2017-02-04T03:24:56.115Z,90.61
2017-02-04T03:25:24.649Z,90.42
2017-02-04T03:25:53.263Z,91
2017-02-04T03:26:21.784Z,91.49
2017-02-04T03:26:50.404Z,90.52
2017-02-04T03:27:19.019Z,90.61
2017-02-04T03:27:47.654Z,90.13
2017-02-04T03:28:16.268Z,89.65
2017-02-04T03:28:44.876Z,89.26
2017-02-04T03:29:13.512Z,89.55
2017-02-04T03:29:42.139Z,90.33
2017-02-04T03:30:10.681Z,90.33
2017-02-04T03:30:39.305Z,90.81
2017-02-04T03:31:07.938Z,90.37
2017-02-04T03:31:36.567Z,90.28
2017-02-04T03:32:05.208Z,90.77
2017-02-04T03:32:33.728Z,90.57
2017-02-04T03:33:02.359Z,90.86
2017-02-04T03:33:30.987Z,91.05
2017-02-04T03:33:59.595Z,91.44
2017-02-04T03:34:28.123Z,91.63
2017-02-04T03:34:56.635Z,92.16
2017-02-04T03:35:25.257Z,92.46
2017-02-04T03:35:53.864Z,91.88
2017-02-04T03:36:22.389Z,92.46
2017-02-04T03:36:51.014Z,92.36
2017-02-04T03:37:19.608Z,92.84
2017-02-04T03:37:48.167Z,92.46
2017-02-04T03:38:16.792Z,92.46
2017-02-04T03:38:45.339Z,92.74
2017-02-04T03:39:13.966Z,93.32
2017-02-04T03:39:42.602Z,93.04
2017-02-04T03:40:11.216Z,93.23
2017-02-04T03:40:39.816Z,94
2017-02-04T03:41:08.399Z,93.8
2017-02-04T03:41:37.008Z,94.1
2017-02-04T03:42:05.631Z,94.1
2017-02-04T03:42:34.259Z,93.9
2017-02-04T03:43:02.877Z,94.38
2017-02-04T03:43:31.479Z,94.53
2017-02-04T03:44:00.099Z,94.34
2017-02-04T03:44:28.739Z,94.73
2017-02-04T03:44:57.359Z,94.82
2017-02-04T03:45:25.887Z,94.53
2017-02-04T03:45:54.520Z,94.92
2017-02-04T03:46:23.105Z,94.43
2017-02-04T03:46:51.738Z,94.24
2017-02-04T03:47:20.254Z,94.24
2017-02-04T03:47:48.860Z,94.82
2017-02-04T03:48:17.368Z,94.53
2017-02-04T03:48:46.001Z,94.73
2017-02-04T03:49:14.535Z,95.11
2017-02-04T03:49:43.149Z,94.43
2017-02-04T03:50:11.811Z,93.85
2017-02-04T03:50:40.352Z,94.05
2017-02-04T03:51:08.986Z,94.73
2017-02-04T03:51:37.519Z,94.53
2017-02-04T03:52:06.133Z,94.2
2017-02-04T03:52:34.653Z,95.16
2017-02-04T03:53:03.275Z,94.87
2017-02-04T03:53:31.879Z,94.48
2017-02-04T03:54:00.486Z,93.52
2017-02-04T03:54:29.015Z,93.23
2017-02-04T03:54:57.533Z,93.23
2017-02-04T03:55:26.157Z,92.84
2017-02-04T03:55:54.772Z,93.13
2017-02-04T03:56:23.208Z,93.04
2017-02-04T03:56:51.841Z,93.23
2017-02-04T03:57:20.567Z,93.04
2017-02-04T03:57:49.189Z,92.74
2017-02-04T03:58:17.792Z,91.97
2017-02-04T03:58:46.411Z,91.78
2017-02-04T03:59:15.036Z,91.97
2017-02-04T03:59:43.566Z,91.39
2017-02-04T04:00:12.185Z,92.26
2017-02-04T04:00:40.806Z,91.88
2017-02-04T04:01:09.410Z,91.2
2017-02-04T04:01:38.024Z,91.39
2017-02-04T04:02:06.643Z,91.68
2017-02-04T04:02:35.290Z,91.97
2017-02-04T04:03:03.909Z,91.68
2017-02-04T04:03:32.561Z,91.78
2017-02-04T04:04:01.172Z,91.68
2017-02-04T04:04:29.822Z,92.26
2017-02-04T04:04:58.442Z,92.36
2017-02-04T04:05:27.046Z,92.36
2017-02-04T04:05:55.661Z,92.16
2017-02-04T04:06:24.293Z,91.68
2017-02-04T04:06:52.905Z,90.81
2017-02-04T04:07:21.529Z,91.11
2017-02-04T04:07:50.183Z,91.74
2017-02-04T04:08:18.782Z,92.02
2017-02-04T04:08:47.415Z,91.35
2017-02-04T04:09:16.042Z,91.44
2017-02-04T04:09:44.665Z,92.7
2017-02-04T04:10:13.284Z,92.6
2017-02-04T04:10:41.897Z,92.8
2017-02-04T04:11:10.503Z,92.8
2017-02-04T04:11:40.072Z,92.41
2017-02-04T04:12:09.595Z,93.08
2017-02-04T04:12:38.207Z,93.28
2017-02-04T04:13:06.819Z,93.81
2017-02-04T04:13:35.439Z,93.85
2017-02-04T04:14:04.054Z,93.66
2017-02-04T04:14:32.668Z,93.57
2017-02-04T04:15:01.356Z,93.95
2017-02-04T04:15:29.973Z,93.76
2017-02-04T04:15:58.576Z,93.81
2017-02-04T04:16:27.102Z,93.81
2017-02-04T04:16:56.355Z,93.71
2017-02-04T04:17:25.611Z,94.48
2017-02-04T04:17:54.221Z,94.2
2017-02-04T04:18:22.844Z,94.2
2017-02-04T04:18:51.491Z,94.48
2017-02-04T04:19:20.137Z,94.58
2017-02-04T04:19:48.752Z,95.16
2017-02-04T04:20:17.196Z,94.96
2017-02-04T04:20:45.775Z,94.96
2017-02-04T04:21:14.392Z,95.16
2017-02-04T04:21:43.053Z,95.06
2017-02-04T04:22:11.701Z,95.64
2017-02-04T04:22:40.294Z,95.45
2017-02-04T04:23:08.930Z,95.16
2017-02-04T04:23:37.546Z,94.78
2017-02-04T04:24:06.167Z,95.16
2017-02-04T04:24:34.666Z,94.78
2017-02-04T04:25:03.294Z,95.84
2017-02-04T04:25:31.925Z,95.54
2017-02-04T04:26:01.323Z,95.64
2017-02-04T04:26:29.985Z,95.26
2017-02-04T04:26:58.594Z,95.16
2017-02-04T04:27:27.208Z,95.4
2017-02-04T04:27:55.819Z,95.74
2017-02-04T04:28:24.348Z,95.69
2017-02-04T04:28:52.876Z,95.64
2017-02-04T04:29:21.503Z,95.54
2017-02-04T04:29:50.129Z,95.45
2017-02-04T04:30:18.747Z,95.54
2017-02-04T04:30:47.346Z,95.36
2017-02-04T04:31:15.851Z,95.54
2017-02-04T04:31:44.455Z,95.64
2017-02-04T04:32:13.074Z,95.26
2017-02-04T04:32:41.535Z,95.45
2017-02-04T04:33:10.083Z,95.36
2017-02-04T04:33:38.724Z,95.74
2017-02-04T04:34:07.341Z,94.96
2017-02-04T04:34:35.983Z,95.26
2017-02-04T04:35:04.431Z,94.68
2017-02-04T04:35:32.975Z,95.74
2017-02-04T04:36:01.486Z,95.54
2017-02-04T04:36:30.124Z,95.45
2017-02-04T04:36:58.767Z,95.26
2017-02-04T04:37:27.408Z,95.5
2017-02-04T04:37:55.906Z,95.31
2017-02-04T04:38:24.452Z,94.63
2017-02-04T04:38:53.090Z,94.24
2017-02-04T04:39:21.719Z,94.43
2017-02-04T04:39:50.255Z,95.21
2017-02-04T04:40:18.895Z,95.21
2017-02-04T04:40:47.539Z,94.63
2017-02-04T04:41:16.074Z,94.24
2017-02-04T04:41:44.584Z,94.63
2017-02-04T04:42:13.133Z,94.24
2017-02-04T04:42:41.769Z,93.95
2017-02-04T04:43:10.409Z,93.95
2017-02-04T04:43:38.953Z,93.95
2017-02-04T04:44:07.576Z,93.95
2017-02-04T04:44:36.195Z,93.76
2017-02-04T04:45:04.824Z,93.76
2017-02-04T04:45:33.503Z,94.05
2017-02-04T04:46:02.091Z,94.43
2017-02-04T04:46:30.629Z,93.95
2017-02-04T04:46:59.231Z,93.08
2017-02-04T04:47:27.817Z,94.24
2017-02-04T04:47:56.351Z,93.76
2017-02-04T04:48:24.879Z,94.05
2017-02-04T04:48:53.482Z,94.34
2017-02-04T04:49:22.107Z,93.95
2017-02-04T04:49:50.701Z,93.95
2017-02-04T04:50:19.330Z,94.15
2017-02-04T04:50:47.975Z,94.24
2017-02-04T04:51:16.612Z,94.24
2017-02-04T04:51:45.215Z,94.43
2017-02-04T04:52:13.746Z,94.39
2017-02-04T04:52:42.376Z,94.1
2017-02-04T04:53:11.008Z,93.52
2017-02-04T04:53:39.642Z,94.29
2017-02-04T04:54:08.272Z,94.68
2017-02-04T04:54:36.845Z,95.16
2017-02-04T04:55:05.295Z,94.87
2017-02-04T04:55:34.010Z,94.68
2017-02-04T04:56:02.612Z,94.78
2017-02-04T04:56:31.265Z,94.39
2017-02-04T04:56:59.827Z,95.06
2017-02-04T04:57:28.350Z,94.87
2017-02-04T04:57:56.896Z,94.96
2017-02-04T04:58:25.522Z,95.54
2017-02-04T04:58:54.135Z,94.87
2017-02-04T04:59:22.777Z,95.16
2017-02-04T04:59:51.572Z,94.78
2017-02-04T05:00:20.230Z,94.2
2017-02-04T05:00:48.734Z,94.87
2017-02-04T05:01:17.275Z,94.29
2017-02-04T05:01:45.904Z,94.48
2017-02-04T05:02:14.499Z,94.43
2017-02-04T05:02:43.123Z,94.68
2017-02-04T05:03:11.629Z,94.2
2017-02-04T05:03:40.234Z,94.34
2017-02-04T05:04:08.750Z,94.29
2017-02-04T05:04:37.382Z,93.85
2017-02-04T05:05:05.824Z,93.57
2017-02-04T05:05:34.354Z,93.66
2017-02-04T05:06:02.996Z,93.95
2017-02-04T05:06:31.586Z,94.15
2017-02-04T05:07:00.200Z,94.53
2017-02-04T05:07:28.821Z,93.95
2017-02-04T05:07:57.433Z,93.76
2017-02-04T05:08:26.046Z,94.63
2017-02-04T05:08:54.472Z,94.15
2017-02-04T05:09:23.070Z,93.47
2017-02-04T05:09:51.692Z,93.28
2017-02-04T05:10:20.339Z,93.85
2017-02-04T05:10:48.949Z,93.76
2017-02-04T05:11:17.473Z,93.18
2017-02-04T05:11:46.014Z,94.05
2017-02-04T05:12:14.559Z,94.15
2017-02-04T05:12:43.163Z,93.85
2017-02-04T05:13:11.779Z,93.66
2017-02-04T05:13:40.427Z,93.28
2017-02-04T05:14:09.032Z,93.57
2017-02-04T05:14:37.547Z,93.66
2017-02-04T05:15:06.154Z,93.66
2017-02-04T05:15:34.791Z,93.28
2017-02-04T05:16:03.412Z,92.99
2017-02-04T05:16:32.027Z,93.76
2017-02-04T05:17:00.646Z,93.76
2017-02-04T05:17:29.293Z,93.47
2017-02-04T05:17:57.925Z,93.28
2017-02-04T05:18:26.530Z,93.18
2017-02-04T05:18:55.139Z,93.18
2017-02-04T05:19:23.742Z,93.18
2017-02-04T05:19:52.341Z,93.66
2017-02-04T05:20:20.866Z,93.57
2017-02-04T05:20:49.497Z,94.05
2017-02-04T05:21:18.095Z,94.29
2017-02-04T05:21:46.714Z,94.05
2017-02-04T05:22:15.320Z,94.53
2017-02-04T05:22:43.849Z,94.34
2017-02-04T05:23:12.459Z,94.34
2017-02-04T05:23:41.102Z,94.43
2017-02-04T05:24:09.732Z,94.73
2017-02-04T05:24:38.354Z,94.53
2017-02-04T05:25:06.990Z,94.63
2017-02-04T05:25:35.576Z,94.29
2017-02-04T05:26:04.186Z,94.39
2017-02-04T05:26:32.812Z,94.34
2017-02-04T05:27:01.424Z,94.48
2017-02-04T05:27:30.058Z,94.39
2017-02-04T05:27:58.693Z,95.36
2017-02-04T05:28:27.341Z,95.06
2017-02-04T05:28:55.772Z,94.78
2017-02-04T05:29:24.381Z,95.45
2017-02-04T05:29:52.913Z,94.96
2017-02-04T05:30:21.553Z,94.78
2017-02-04T05:30:50.158Z,94.96
2017-02-04T05:31:18.701Z,94.96
2017-02-04T05:31:47.130Z,95.74
2017-02-04T05:32:15.757Z,95.54
2017-02-04T05:32:44.277Z,95.45
2017-02-04T05:33:12.910Z,95.45
2017-02-04T05:33:41.552Z,95.45
2017-02-04T05:34:10.076Z,95.54
2017-02-04T05:34:38.739Z,95.45
2017-02-04T05:35:07.393Z,95.74
2017-02-04T05:35:36.034Z,95.54
2017-02-04T05:36:04.573Z,94.78
2017-02-04T05:36:33.068Z,94.96
2017-02-04T05:37:01.697Z,95.06
2017-02-04T05:37:30.332Z,95.54
2017-02-04T05:37:58.839Z,94.78
2017-02-04T05:38:27.439Z,95.36
2017-02-04T05:38:55.947Z,95.16
2017-02-04T05:39:24.607Z,95.36
2017-02-04T05:39:53.219Z,94.87
2017-02-04T05:40:21.824Z,95.16
2017-02-04T05:40:50.356Z,94.96
2017-02-04T05:41:18.966Z,95.06
2017-02-04T05:41:47.593Z,95.06
2017-02-04T05:42:16.200Z,95.36
2017-02-04T05:42:44.804Z,95.26
2017-02-04T05:43:13.332Z,95.74
2017-02-04T05:43:41.995Z,95.64
2017-02-04T05:44:10.532Z,95.16
2017-02-04T05:44:39.155Z,95.84
2017-02-04T05:45:07.772Z,96.12
2017-02-04T05:45:36.367Z,95.93
2017-02-04T05:46:05.013Z,95.74
2017-02-04T05:46:33.636Z,96.89
2017-02-04T05:47:02.154Z,96.51
2017-02-04T05:47:30.593Z,96.41
2017-02-04T05:47:59.203Z,96.7
2017-02-04T05:48:27.821Z,96.41
2017-02-04T05:48:56.457Z,96.41
2017-02-04T05:49:24.991Z,96.8
2017-02-04T05:49:53.613Z,96.8
2017-02-04T05:50:22.239Z,96.7
2017-02-04T05:50:50.795Z,96.8
2017-02-04T05:51:19.423Z,97.19
2017-02-04T05:51:48.038Z,96.32
2017-02-04T05:52:16.677Z,97.19
2017-02-04T05:52:45.299Z,96.99
2017-02-04T05:53:13.745Z,96.51
2017-02-04T05:53:42.360Z,96.51
2017-02-04T05:54:10.951Z,97.47
2017-02-04T05:54:39.579Z,97.47
2017-02-04T05:55:08.087Z,97.19
2017-02-04T05:55:36.709Z,97.19
2017-02-04T05:56:05.320Z,97.86
2017-02-04T05:56:33.945Z,97.67
2017-02-04T05:57:02.559Z,97.81
2017-02-04T05:57:31.097Z,97.77
2017-02-04T05:57:59.694Z,97.96
2017-02-04T05:58:28.299Z,97.67
2017-02-04T05:58:56.910Z,98
2017-02-04T05:59:25.423Z,98.05
2017-02-04T05:59:54.056Z,98
2017-02-04T06:00:22.680Z,98.1
2017-02-04T06:00:51.305Z,97.86
2017-02-04T06:01:19.834Z,98.44
2017-02-04T06:01:48.415Z,97.57
2017-02-04T06:02:17.023Z,97.47
2017-02-04T06:02:45.632Z,97.96
2017-02-04T06:03:14.256Z,97.77
2017-02-04T06:03:42.888Z,97.47
2017-02-04T06:04:11.428Z,97.38
2017-02-04T06:04:40.038Z,97.67
2017-02-04T06:05:08.656Z,97.67
2017-02-04T06:05:37.146Z,97.77
2017-02-04T06:06:05.782Z,97.67
2017-02-04T06:06:34.387Z,97.67
2017-02-04T06:07:03.010Z,97.57
2017-02-04T06:07:31.643Z,97.67